Wednesday, December 12, 2018, 11:11 PM EST
Back to Local

KMSV, Monticello, Sullivan County International Airport

Location: Swan Lake, NY, United States Lat: 41.7
Local Time: 11:11 PM EST ( 4:11 GMT) Lon: -74.8
Time Zone: US/Eastern Elev: 1404 ft

Show me the last for .
Show Decoded

2018-12-12 21:56 METAR KMSV 130256Z AUTO 09007KT 8SM CLR M07/M08 A3017 RMK AO2 SLP237 T10671078
                 50006 FZRANO =
2018-12-12 20:56 METAR KMSV 130156Z AUTO 06005KT 10SM CLR M05/M07 A3017 RMK AO2 SLP237 T10501067
                 FZRANO =
2018-12-12 19:56 METAR KMSV 130056Z AUTO 00000KT 10SM CLR M04/M06 A3017 RMK AO2 SLP235 T10391061
                 FZRANO =
2018-12-12 19:31 METAR KMSV 130031Z AUTO 11003KT 10SM FEW026 M03/M06 A3016 RMK AO2 FZRANO =
2018-12-12 18:56 METAR KMSV 122356Z AUTO 10003KT 10SM OVC026 M03/M06 A3015 RMK AO2 SLP229
                 T10281056 10000 21028 51015 FZRANO =
2018-12-12 17:56 METAR KMSV 122256Z AUTO 00000KT 10SM OVC026 M02/M05 A3014 RMK AO2 SLP225
                 T10171050 FZRANO =
2018-12-12 16:56 METAR KMSV 122156Z AUTO 29004KT 10SM OVC028 M01/M05 A3012 RMK AO2 SLP216
                 T10111050 FZRANO =
2018-12-12 15:56 METAR KMSV 122056Z AUTO 32006KT 10SM OVC028 M01/M06 A3011 RMK AO2 SLP212
                 T10061056 53009 FZRANO =
2018-12-12 14:56 METAR KMSV 121956Z AUTO 31006KT 10SM OVC028 M01/M06 A3010 RMK AO2 SLP209
                 T10061056 FZRANO =
2018-12-12 13:56 METAR KMSV 121856Z AUTO 27005KT 9SM OVC026 M01/M04 A3008 RMK AO2 SLP203
                 T10061039 FZRANO =
2018-12-12 12:56 METAR KMSV 121756Z AUTO 27005KT 8SM SCT018 OVC024 M01/M04 A3008 RMK AO2 SLP202
                 60000 T10061039 11006 21022 55001 FZRANO =
2018-12-12 11:56 METAR KMSV 121656Z AUTO 29003KT 9SM OVC026 M01/M04 A3007 RMK AO2 UPB22E33SNE12
                 SLP199 P0000 T10061044 FZRANO =
2018-12-12 10:56 METAR KMSV 121556Z AUTO 31005KT 5SM -SN BR OVC026 M01/M03 A3007 RMK AO2 SLP201
                 P0000 T10111033 FZRANO =
2018-12-12 09:56 METAR KMSV 121456Z AUTO 26007KT 6SM -SN BKN020 OVC025 M01/M04 A3008 RMK AO2
                 SNE03B47 SLP203 P0000 60000 T10111044 53023 FZRANO =
2018-12-12 08:56 METAR KMSV 121356Z AUTO 33005KT 6SM -SN BR BKN017 BKN022 OVC029 M02/M04 A3004
                 RMK AO2 SLP192 P0000 T10171039 FZRANO =
2018-12-12 08:31 METAR KMSV 121331Z AUTO 30005KT 4SM BR OVC015 M02/M04 A3004 RMK AO2 SNE25 P0000
                 FZRANO =
2018-12-12 07:56 METAR KMSV 121256Z AUTO 29006KT 5SM -SN BR OVC012 M02/M04 A3003 RMK AO2 SLP186
                 P0000 T10221044 FZRANO =
2018-12-12 07:29 METAR KMSV 121229Z AUTO 29006KT 5SM -SN BR OVC014 M02/M04 A3001 RMK AO2 P0000
                 FZRANO =
2018-12-12 05:56 METAR KMSV 121056Z AUTO 29005KT 9SM OVC018 M02/M05 A2999 RMK AO2 SLP174
                 T10221050 FZRANO =
2018-12-12 04:56 METAR KMSV 120956Z AUTO 30007KT 10SM OVC016 M03/M05 A2997 RMK AO2 SLP165
                 T10281050 FZRANO =
2018-12-12 03:56 METAR KMSV 120856Z AUTO 30007KT 9SM OVC016 M03/M06 A2995 RMK AO2 SNE10 SLP159
                 P0000 60000 T10331056 51014 FZRANO =
2018-12-12 02:56 METAR KMSV 120756Z AUTO 29009KT 8SM -SN BKN020 OVC029 M03/M06 A2994 RMK AO2
                 SLP156 P0000 T10331056 FZRANO =
2018-12-12 01:56 METAR KMSV 120656Z AUTO 29008KT 9SM -SN OVC018 M03/M06 A2993 RMK AO2 SLP150
                 P0000 T10331061 FZRANO =
2018-12-12 01:24 METAR KMSV 120624Z AUTO 30008KT 9SM -SN BKN020 OVC055 M03/M06 A2991 RMK AO2
                 P0000 FZRANO =
2018-12-12 00:56 METAR KMSV 120556Z AUTO 29009KT 9SM -SN FEW022 OVC055 M03/M07 A2991 RMK AO2
                 SNB11 SLP144 P0000 60000 T10331067 11028 21033 56004 FZRANO =
2018-12-12 00:43 METAR KMSV 120543Z AUTO 29010KT 9SM -SN SCT022 OVC050 M03/M07 A2991 RMK AO2
                 SNB11 P0000 FZRANO =
2018-12-11 23:56 METAR KMSV 120456Z AUTO 30009KT 10SM BKN022 OVC055 M03/M07 A2992 RMK AO2
                 SNB06E18 SLP147 P0000 T10331067 400171128 FZRANO =

Support USWX by starting your Amazon purchase here.